createdAt,value
2018-11-02T00:00:41.360Z,19.20
2018-11-02T00:01:41.349Z,18.60
2018-11-02T00:02:41.401Z,20.00
2018-11-02T00:03:41.335Z,19.80
2018-11-02T00:04:41.325Z,18.20
2018-11-02T00:05:41.305Z,17.50
2018-11-02T00:06:41.296Z,18.90
2018-11-02T00:07:41.284Z,17.70
2018-11-02T00:08:41.269Z,17.70
2018-11-02T00:09:41.272Z,17.80
2018-11-02T00:10:41.248Z,18.00
2018-11-02T00:11:41.237Z,17.30
2018-11-02T00:12:41.224Z,17.90
2018-11-02T00:13:41.212Z,17.90
2018-11-02T00:14:41.229Z,19.00
2018-11-02T00:15:41.191Z,17.90
2018-11-02T00:16:41.181Z,18.30
2018-11-02T00:17:41.170Z,18.90
2018-11-02T00:18:41.157Z,19.00
2018-11-02T00:19:41.162Z,19.30
2018-11-02T00:20:41.139Z,20.30
2018-11-02T00:21:41.125Z,18.80
2018-11-02T00:22:41.114Z,19.20
2018-11-02T00:23:41.101Z,19.90
2018-11-02T00:24:41.102Z,20.00
2018-11-02T00:25:41.080Z,20.00
2018-11-02T00:26:41.072Z,19.50
2018-11-02T00:27:41.062Z,19.60
2018-11-02T00:28:41.048Z,19.60
2018-11-02T00:29:41.069Z,19.80
2018-11-02T00:30:41.030Z,20.40
2018-11-02T00:31:41.074Z,19.40
2018-11-02T00:32:41.007Z,19.90
2018-11-02T00:33:40.997Z,21.20
2018-11-02T00:34:40.988Z,20.80
2018-11-02T00:35:41.146Z,19.70
2018-11-02T00:36:40.959Z,18.50
2018-11-02T00:37:40.951Z,20.00
2018-11-02T00:38:40.939Z,19.20
2018-11-02T00:39:40.924Z,18.60
2018-11-02T00:40:40.923Z,19.80
2018-11-02T00:41:40.902Z,20.80
2018-11-02T00:42:40.894Z,20.20
2018-11-02T00:43:40.893Z,20.50
2018-11-02T00:44:40.870Z,21.10
2018-11-02T00:45:40.871Z,21.60
2018-11-02T00:46:40.865Z,22.00
2018-11-02T00:47:40.837Z,21.30
2018-11-02T00:48:40.824Z,20.10
2018-11-02T00:49:40.815Z,21.90
2018-11-02T00:50:40.811Z,22.10
2018-11-02T00:51:40.790Z,21.80
2018-11-02T00:52:40.779Z,21.00
2018-11-02T00:53:40.769Z,20.80
2018-11-02T00:54:40.761Z,21.40
2018-11-02T00:55:40.760Z,21.80
2018-11-02T00:56:40.734Z,21.30
2018-11-02T00:57:40.726Z,21.00
2018-11-02T00:58:40.762Z,21.00
2018-11-02T00:59:40.703Z,20.60
2018-11-02T01:00:40.706Z,20.70
2018-11-02T01:01:40.680Z,20.50
2018-11-02T01:02:40.669Z,20.10
2018-11-02T01:03:40.670Z,19.30
2018-11-02T01:04:40.654Z,20.40
2018-11-02T01:05:40.655Z,20.40
2018-11-02T01:06:40.631Z,20.00
2018-11-02T01:07:40.615Z,19.60
2018-11-02T01:08:40.602Z,20.00
2018-11-02T01:09:40.591Z,19.50
2018-11-02T01:10:40.621Z,19.70
2018-11-02T01:11:40.569Z,20.20
2018-11-02T01:12:40.557Z,20.60
2018-11-02T01:13:40.547Z,20.30
2018-11-02T01:14:40.535Z,20.00
2018-11-02T01:15:40.542Z,20.50
2018-11-02T01:16:40.710Z,19.40
2018-11-02T01:17:40.502Z,20.30
2018-11-02T01:18:40.492Z,19.70
2018-11-02T01:19:40.480Z,19.10
2018-11-02T01:20:40.470Z,20.10
2018-11-02T01:21:40.469Z,19.10
2018-11-02T01:22:40.448Z,20.00
2018-11-02T01:23:40.437Z,18.70
2018-11-02T01:24:40.427Z,19.60
2018-11-02T01:25:40.414Z,19.10
2018-11-02T01:26:40.414Z,19.60
2018-11-02T01:27:40.408Z,20.30
2018-11-02T01:28:40.388Z,19.70
2018-11-02T01:29:40.370Z,20.30
2018-11-02T01:30:40.363Z,20.90
2018-11-02T01:31:40.359Z,19.80
2018-11-02T01:32:40.340Z,19.80
2018-11-02T01:33:40.331Z,19.60
2018-11-02T01:34:40.315Z,20.40
2018-11-02T01:35:40.307Z,19.50
2018-11-02T01:36:40.304Z,19.10
2018-11-02T01:37:40.283Z,19.40
2018-11-02T01:38:40.273Z,20.10
2018-11-02T01:39:40.265Z,20.10
2018-11-02T01:40:40.257Z,18.90
2018-11-02T01:41:40.258Z,20.00
2018-11-02T01:42:40.237Z,19.60
2018-11-02T01:43:40.218Z,19.90
2018-11-02T01:44:40.204Z,20.10
2018-11-02T01:45:40.193Z,19.80
2018-11-02T01:46:40.219Z,18.90
2018-11-02T01:47:40.171Z,18.90
2018-11-02T01:48:40.160Z,20.20
2018-11-02T01:49:40.148Z,20.20
2018-11-02T01:50:40.139Z,20.20
2018-11-02T01:51:40.142Z,20.30
2018-11-02T01:52:40.122Z,19.30
2018-11-02T01:53:40.106Z,19.60
2018-11-02T01:54:40.097Z,19.00
2018-11-02T01:55:40.088Z,20.20
2018-11-02T01:56:40.085Z,20.20
2018-11-02T01:57:40.064Z,19.90
2018-11-02T01:58:40.053Z,20.30
2018-11-02T01:59:40.048Z,20.00
2018-11-02T02:00:40.031Z,19.40
2018-11-02T02:01:40.032Z,19.80
2018-11-02T02:02:40.013Z,20.20
2018-11-02T02:03:39.996Z,19.80
2018-11-02T02:04:39.984Z,20.00
2018-11-02T02:05:39.976Z,19.10
2018-11-02T02:06:39.974Z,19.40
2018-11-02T02:07:39.955Z,19.60
2018-11-02T02:08:39.959Z,19.60
2018-11-02T02:09:39.931Z,19.30
2018-11-02T02:10:39.918Z,19.10
2018-11-02T02:11:39.931Z,19.40
2018-11-02T02:12:39.919Z,18.80
2018-11-02T02:13:39.894Z,18.20
2018-11-02T02:14:39.902Z,18.80
2018-11-02T02:15:39.881Z,18.70
2018-11-02T02:16:39.854Z,19.30
2018-11-02T02:17:39.854Z,19.40
2018-11-02T02:18:39.831Z,18.30
2018-11-02T02:19:39.826Z,18.30
2018-11-02T02:20:39.808Z,18.10
2018-11-02T02:21:39.795Z,18.80
2018-11-02T02:22:39.809Z,17.60
2018-11-02T02:23:39.776Z,18.10
2018-11-02T02:24:39.770Z,18.20
2018-11-02T02:25:39.763Z,18.40
2018-11-02T02:26:39.745Z,18.20
2018-11-02T02:27:39.741Z,17.80
2018-11-02T02:28:39.720Z,17.80
2018-11-02T02:29:39.714Z,17.40
2018-11-02T02:30:39.700Z,18.10
2018-11-02T02:31:39.703Z,17.80
2018-11-02T02:32:39.688Z,17.20
2018-11-02T02:33:39.665Z,18.10
2018-11-02T02:34:39.656Z,17.50
2018-11-02T02:35:39.651Z,16.70
2018-11-02T02:36:39.636Z,17.30
2018-11-02T02:37:39.641Z,17.50
2018-11-02T02:38:39.612Z,16.80
2018-11-02T02:39:39.602Z,17.60
2018-11-02T02:40:39.603Z,17.30
2018-11-02T02:41:39.578Z,17.60
2018-11-02T02:42:39.584Z,17.30
2018-11-02T02:43:39.563Z,17.80
2018-11-02T02:44:39.547Z,17.00
2018-11-02T02:45:39.535Z,16.60
2018-11-02T02:46:39.526Z,17.20
2018-11-02T02:47:39.591Z,18.00
2018-11-02T02:48:39.499Z,17.60
2018-11-02T02:49:39.489Z,18.40
2018-11-02T02:50:39.476Z,18.00
2018-11-02T02:51:39.466Z,18.20
2018-11-02T02:52:39.455Z,20.70
2018-11-02T02:53:39.476Z,23.10
2018-11-02T02:54:39.434Z,24.00
2018-11-02T02:55:39.436Z,23.50
2018-11-02T02:56:39.411Z,24.70
2018-11-02T02:57:39.399Z,22.40
2018-11-02T02:58:39.404Z,22.70
2018-11-02T02:59:39.380Z,23.20
2018-11-02T03:00:39.367Z,20.20
2018-11-02T03:01:39.357Z,22.10
2018-11-02T03:02:39.346Z,22.10
2018-11-02T03:03:39.347Z,19.60
2018-11-02T03:04:39.326Z,20.60
2018-11-02T03:05:39.313Z,21.40
2018-11-02T03:06:39.303Z,20.50
2018-11-02T03:07:39.294Z,21.50
2018-11-02T03:08:39.289Z,18.30
2018-11-02T03:09:39.267Z,18.30
2018-11-02T03:10:39.360Z,17.10
2018-11-02T03:11:39.250Z,14.60
2018-11-02T03:12:39.237Z,13.80
2018-11-02T03:13:39.237Z,13.60
2018-11-02T03:14:39.213Z,13.20
2018-11-02T03:15:39.201Z,13.40
2018-11-02T03:16:39.194Z,12.90
2018-11-02T03:17:39.190Z,11.60
2018-11-02T03:18:39.189Z,10.80
2018-11-02T03:19:39.162Z,11.00
2018-11-02T03:20:39.172Z,10.60
2018-11-02T03:21:39.135Z,11.20
2018-11-02T03:22:39.219Z,10.70
2018-11-02T03:23:39.132Z,10.50
2018-11-02T03:24:39.103Z,10.10
2018-11-02T03:25:41.595Z,10.50
2018-11-02T03:26:39.080Z,10.10
2018-11-02T03:27:39.072Z,10.00
2018-11-02T03:28:39.069Z,10.20
2018-11-02T03:29:39.049Z,9.70
2018-11-02T03:32:24.065Z,8.40
2018-11-02T03:32:47.750Z,9.10
2018-11-02T03:33:47.747Z,9.00
2018-11-02T03:34:47.746Z,8.70
2018-11-02T03:35:47.717Z,8.60
2018-11-02T03:36:47.704Z,8.50
2018-11-02T03:37:47.692Z,8.50
2018-11-02T03:38:47.694Z,9.40
2018-11-02T03:39:47.701Z,8.40
2018-11-02T03:40:47.665Z,8.40
2018-11-02T03:41:47.652Z,8.10
2018-11-02T03:42:47.639Z,8.10
2018-11-02T03:43:47.642Z,8.10
2018-11-02T03:44:47.617Z,7.90
2018-11-02T03:45:47.605Z,8.30
2018-11-02T03:46:47.596Z,7.70
2018-11-02T03:47:47.595Z,7.20
2018-11-02T03:48:47.595Z,7.50
2018-11-02T03:49:47.586Z,7.70
2018-11-02T03:50:47.548Z,7.40
2018-11-02T03:51:47.539Z,7.20
2018-11-02T03:52:47.528Z,7.50
2018-11-02T03:53:47.530Z,7.40
2018-11-02T03:54:47.532Z,7.10
2018-11-02T03:55:47.658Z,7.60
2018-11-02T03:56:47.529Z,6.80
2018-11-02T03:57:47.471Z,7.10
2018-11-02T03:58:47.472Z,7.10
2018-11-02T03:59:47.449Z,7.50
2018-11-02T04:00:47.440Z,7.00
2018-11-02T04:01:47.429Z,7.00
2018-11-02T04:02:47.415Z,7.30
2018-11-02T04:03:47.421Z,7.30
2018-11-02T04:04:47.408Z,7.20
2018-11-02T04:05:47.383Z,6.70
2018-11-02T04:06:47.372Z,7.20
2018-11-02T04:07:47.362Z,7.20
2018-11-02T04:08:47.363Z,7.50
2018-11-02T04:09:47.468Z,7.20
2018-11-02T04:10:47.332Z,7.30
2018-11-02T04:11:47.317Z,6.80
2018-11-02T04:12:47.348Z,7.20
2018-11-02T04:13:47.304Z,7.00
2018-11-02T04:14:47.285Z,6.90
2018-11-02T04:15:47.277Z,7.00
2018-11-02T04:16:47.262Z,6.90
2018-11-02T04:17:47.251Z,7.20
2018-11-02T04:18:47.266Z,6.70
2018-11-02T04:19:47.232Z,7.50
2018-11-02T04:20:47.217Z,7.00
2018-11-02T04:21:47.210Z,7.00
2018-11-02T04:22:47.209Z,7.50
2018-11-02T04:23:47.190Z,7.00
2018-11-02T04:24:47.184Z,6.90
2018-11-02T04:25:47.164Z,7.20
2018-11-02T04:26:47.160Z,7.40
2018-11-02T04:27:47.141Z,6.90
2018-11-02T04:28:47.128Z,7.80
2018-11-02T04:29:47.129Z,7.30
2018-11-02T04:30:47.271Z,7.20
2018-11-02T04:31:47.109Z,7.70
2018-11-02T04:32:47.088Z,7.20
2018-11-02T04:33:47.074Z,7.20
2018-11-02T04:34:47.077Z,8.00
2018-11-02T04:35:47.066Z,8.00
2018-11-02T04:36:47.047Z,7.60
2018-11-02T04:37:47.032Z,7.60
2018-11-02T04:38:47.028Z,7.70
2018-11-02T04:39:47.022Z,7.80
2018-11-02T04:40:46.999Z,8.00
2018-11-02T04:41:46.985Z,7.40
2018-11-02T04:42:46.977Z,8.00
2018-11-02T04:43:46.964Z,8.00
2018-11-02T04:44:46.965Z,8.00
2018-11-02T04:45:46.944Z,7.50
2018-11-02T04:46:46.932Z,8.20
2018-11-02T04:47:46.920Z,8.30
2018-11-02T04:48:46.918Z,8.20
2018-11-02T04:49:46.914Z,7.90
2018-11-02T04:50:46.912Z,8.20
2018-11-02T04:51:46.875Z,8.00
2018-11-02T04:52:46.865Z,7.90
2018-11-02T04:53:46.855Z,7.90
2018-11-02T04:54:46.859Z,9.40
2018-11-02T04:55:46.832Z,8.20
2018-11-02T04:56:46.824Z,8.70
2018-11-02T04:57:46.814Z,8.20
2018-11-02T04:58:46.800Z,8.00
2018-11-02T04:59:46.801Z,8.10
2018-11-02T05:00:46.777Z,8.30
2018-11-02T05:01:46.764Z,8.10
2018-11-02T05:02:46.757Z,8.30
2018-11-02T05:03:46.744Z,7.90
2018-11-02T05:04:46.760Z,8.20
2018-11-02T05:05:46.724Z,8.40
2018-11-02T05:06:46.712Z,9.30
2018-11-02T05:07:46.702Z,8.40
2018-11-02T05:08:46.705Z,8.50
2018-11-02T05:09:46.714Z,8.40
2018-11-02T05:10:46.676Z,8.60
2018-11-02T05:11:46.658Z,8.40
2018-11-02T05:12:46.642Z,8.00
2018-11-02T05:13:46.634Z,8.40
2018-11-02T05:14:46.626Z,8.00
2018-11-02T05:15:46.636Z,8.60
2018-11-02T05:16:46.603Z,8.70
2018-11-02T05:17:46.589Z,8.30
2018-11-02T05:18:46.577Z,8.50
2018-11-02T05:19:46.570Z,8.30
2018-11-02T05:20:46.570Z,8.00
2018-11-02T05:21:46.545Z,8.30
2018-11-02T05:22:46.533Z,8.70
2018-11-02T05:23:46.528Z,8.40
2018-11-02T05:24:46.512Z,8.70
2018-11-02T05:25:46.514Z,9.10
2018-11-02T05:26:46.491Z,8.80
2018-11-02T05:27:46.480Z,8.40
2018-11-02T05:28:46.473Z,8.50
2018-11-02T05:29:46.466Z,8.90
2018-11-02T05:30:46.554Z,10.60
2018-11-02T05:31:46.456Z,10.80
2018-11-02T05:32:46.427Z,11.20
2018-11-02T05:33:46.418Z,11.10
2018-11-02T05:34:46.427Z,11.80
2018-11-02T05:35:46.443Z,12.30
2018-11-02T05:36:46.411Z,11.30
2018-11-02T05:37:46.367Z,12.00
2018-11-02T05:38:46.356Z,11.40
2018-11-02T05:39:46.372Z,16.10
2018-11-02T05:40:46.354Z,12.40
2018-11-02T05:41:46.345Z,11.80
2018-11-02T05:42:46.321Z,13.40
2018-11-02T05:43:46.314Z,11.90
2018-11-02T05:44:46.291Z,13.00
2018-11-02T05:45:46.323Z,11.70
2018-11-02T05:46:46.271Z,11.20
2018-11-02T05:47:46.268Z,13.20
2018-11-02T05:48:46.252Z,12.00
2018-11-02T05:49:46.237Z,11.90
2018-11-02T05:50:46.245Z,12.80
2018-11-02T05:51:46.227Z,12.00
2018-11-02T05:52:46.209Z,12.50
2018-11-02T05:53:46.205Z,13.20
2018-11-02T05:54:46.222Z,10.60
2018-11-02T05:55:46.175Z,11.20
2018-11-02T05:56:46.176Z,10.40
2018-11-02T05:57:46.160Z,10.40
2018-11-02T05:58:46.137Z,10.40
2018-11-02T05:59:46.132Z,10.90
2018-11-02T06:00:46.116Z,10.50
2018-11-02T06:01:46.292Z,10.50
2018-11-02T06:02:46.092Z,11.70
2018-11-02T06:03:46.081Z,10.40
2018-11-02T06:04:46.083Z,10.20
2018-11-02T06:05:46.074Z,10.60
2018-11-02T06:06:46.090Z,10.60
2018-11-02T06:07:46.144Z,11.10
2018-11-02T06:08:46.026Z,10.60
2018-11-02T06:09:46.015Z,10.10
2018-11-02T06:10:46.053Z,10.70
2018-11-02T06:11:46.007Z,11.20
2018-11-02T06:12:45.981Z,10.70
2018-11-02T06:13:45.972Z,10.30
2018-11-02T06:14:45.964Z,11.10
2018-11-02T06:15:45.949Z,10.30
2018-11-02T06:16:46.020Z,10.20
2018-11-02T06:17:45.946Z,11.20
2018-11-02T06:18:45.922Z,11.10
2018-11-02T06:19:45.960Z,10.60
2018-11-02T06:20:45.912Z,10.80
2018-11-02T06:21:45.925Z,10.50
2018-11-02T06:22:45.876Z,10.10
2018-11-02T06:23:45.860Z,10.10
2018-11-02T06:24:45.848Z,10.20
2018-11-02T06:25:45.837Z,10.70
2018-11-02T06:26:45.837Z,10.10
2018-11-02T06:27:45.816Z,10.40
2018-11-02T06:28:45.806Z,11.10
2018-11-02T06:29:45.792Z,10.50
2018-11-02T06:30:45.911Z,10.60
2018-11-02T06:31:45.798Z,10.20
2018-11-02T06:32:45.792Z,10.80
2018-11-02T06:33:45.764Z,11.10
2018-11-02T06:34:45.751Z,11.20
2018-11-02T06:35:45.725Z,10.50
2018-11-02T06:36:45.725Z,10.80
2018-11-02T06:37:45.704Z,12.20
2018-11-02T06:38:45.721Z,11.20
2018-11-02T06:39:45.683Z,10.50
2018-11-02T06:40:45.672Z,11.80
2018-11-02T06:41:45.694Z,10.80
2018-11-02T06:42:45.647Z,11.30
2018-11-02T06:43:45.637Z,10.40
2018-11-02T06:44:45.675Z,11.00
2018-11-02T06:45:45.616Z,10.80
2018-11-02T06:46:45.617Z,11.20
2018-11-02T06:47:45.594Z,10.90
2018-11-02T06:48:45.581Z,10.90
2018-11-02T06:49:45.577Z,11.10
2018-11-02T06:50:45.584Z,11.10
2018-11-02T06:51:45.581Z,10.70
2018-11-02T06:52:45.537Z,11.30
2018-11-02T06:53:45.525Z,10.80
2018-11-02T06:54:45.515Z,14.30
2018-11-02T06:55:45.508Z,14.30
2018-11-02T06:56:45.513Z,13.90
2018-11-02T06:57:45.482Z,11.40
2018-11-02T06:58:45.482Z,10.80
2018-11-02T06:59:45.531Z,10.40
2018-11-02T07:00:45.462Z,11.30
2018-11-02T07:01:45.438Z,11.20
2018-11-02T07:02:45.441Z,10.90
2018-11-02T07:03:45.418Z,11.10
2018-11-02T07:04:45.405Z,12.00
2018-11-02T07:05:45.434Z,11.90
2018-11-02T07:06:45.381Z,11.90
2018-11-02T07:07:45.517Z,11.80
2018-11-02T07:08:45.361Z,11.50
2018-11-02T07:09:45.347Z,11.30
2018-11-02T07:10:45.439Z,11.10
2018-11-02T07:11:45.325Z,12.00
2018-11-02T07:12:45.330Z,11.30
2018-11-02T07:13:45.305Z,11.50
2018-11-02T07:14:45.296Z,10.20
2018-11-02T07:15:45.286Z,10.90
2018-11-02T07:16:45.270Z,10.40
2018-11-02T07:17:45.304Z,10.10
2018-11-02T07:18:45.253Z,11.00
2018-11-02T07:19:45.244Z,11.00
2018-11-02T07:20:45.257Z,11.30
2018-11-02T07:21:45.220Z,11.60
2018-11-02T07:22:45.214Z,11.20
2018-11-02T07:23:45.202Z,11.70
2018-11-02T07:24:45.187Z,12.60
2018-11-02T07:25:45.172Z,11.20
2018-11-02T07:26:45.159Z,11.30
2018-11-02T07:27:45.167Z,10.70
2018-11-02T07:28:45.136Z,10.90
2018-11-02T07:29:45.125Z,10.80
2018-11-02T07:30:45.148Z,10.80
2018-11-02T07:31:45.125Z,10.60
2018-11-02T07:32:45.131Z,10.90
2018-11-02T07:33:45.087Z,10.40
2018-11-02T07:34:45.072Z,12.00
2018-11-02T07:35:45.061Z,11.00
2018-11-02T07:36:45.061Z,11.10
2018-11-02T07:37:45.057Z,10.60
2018-11-02T07:38:45.028Z,10.90
2018-11-02T07:39:45.016Z,10.40
2018-11-02T07:40:45.007Z,12.90
2018-11-02T07:41:44.992Z,9.90
2018-11-02T07:42:44.995Z,10.70
2018-11-02T07:43:44.978Z,11.50
2018-11-02T07:44:44.961Z,11.80
2018-11-02T07:45:44.947Z,11.20
2018-11-02T07:46:44.937Z,12.30
2018-11-02T07:47:45.012Z,13.00
2018-11-02T07:48:44.955Z,14.40
2018-11-02T07:49:45.031Z,11.90
2018-11-02T07:50:44.892Z,14.90
2018-11-02T07:51:44.880Z,13.40
2018-11-02T07:52:44.884Z,15.20
2018-11-02T07:53:44.861Z,14.30
2018-11-02T07:54:44.849Z,15.80
2018-11-02T07:55:44.843Z,15.40
2018-11-02T07:56:44.854Z,16.40
2018-11-02T07:57:44.889Z,17.90
2018-11-02T07:58:44.858Z,18.30
2018-11-02T07:59:44.839Z,20.50
2018-11-02T08:00:44.803Z,19.40
2018-11-02T08:01:44.842Z,21.20
2018-11-02T08:02:44.868Z,20.50
2018-11-02T08:03:44.750Z,19.70
2018-11-02T08:04:44.746Z,21.10
2018-11-02T08:05:44.738Z,19.40
2018-11-02T08:06:44.732Z,19.00
2018-11-02T08:07:44.704Z,17.10
2018-11-02T08:08:44.705Z,20.00
2018-11-02T08:09:44.683Z,16.80
2018-11-02T08:10:44.671Z,15.50
2018-11-02T08:11:44.661Z,18.50
2018-11-02T08:12:44.651Z,15.90
2018-11-02T08:13:44.651Z,17.50
2018-11-02T08:14:44.627Z,15.70
2018-11-02T08:15:44.623Z,15.10
2018-11-02T08:16:44.613Z,16.80
2018-11-02T08:17:44.640Z,15.60
2018-11-02T08:18:44.619Z,16.50
2018-11-02T08:19:44.574Z,14.90
2018-11-02T08:20:44.561Z,15.90
2018-11-02T08:21:44.554Z,16.00
2018-11-02T08:22:44.574Z,15.80
2018-11-02T08:23:44.542Z,14.70
2018-11-02T08:24:44.521Z,15.80
2018-11-02T08:25:44.508Z,17.00
2018-11-02T08:26:44.508Z,17.70
2018-11-02T08:27:44.491Z,17.30
2018-11-02T08:28:44.498Z,16.80
2018-11-02T08:29:44.494Z,15.80
2018-11-02T08:30:44.453Z,16.90
2018-11-02T08:31:44.440Z,17.00
2018-11-02T08:32:44.428Z,14.00
2018-11-02T08:33:44.427Z,15.20
2018-11-02T08:34:44.443Z,15.80
2018-11-02T08:35:44.394Z,14.60
2018-11-02T08:36:44.382Z,13.00
2018-11-02T08:37:44.374Z,12.70
2018-11-02T08:38:44.397Z,12.90
2018-11-02T08:39:44.353Z,10.60
2018-11-02T08:40:44.338Z,10.50
2018-11-02T08:41:44.326Z,9.70
2018-11-02T08:42:44.315Z,10.20
2018-11-02T08:43:44.307Z,7.80
2018-11-02T08:44:44.328Z,8.70
2018-11-02T08:45:44.310Z,7.80
2018-11-02T08:46:44.270Z,7.20
2018-11-02T08:47:44.259Z,7.10
2018-11-02T08:48:44.249Z,7.90
2018-11-02T08:49:44.249Z,7.60
2018-11-02T08:50:44.257Z,7.80
2018-11-02T08:51:44.226Z,7.20
2018-11-02T08:52:44.206Z,8.20
2018-11-02T08:53:44.193Z,9.10
2018-11-02T08:54:44.194Z,7.70
2018-11-02T08:55:44.172Z,7.50
2018-11-02T08:56:44.161Z,8.80
2018-11-02T08:57:44.263Z,7.90
2018-11-02T08:58:44.449Z,8.30
2018-11-02T08:59:44.178Z,7.50
2018-11-02T09:00:44.122Z,8.30
2018-11-02T09:01:44.118Z,7.70
2018-11-02T09:02:44.106Z,7.60
2018-11-02T09:03:44.083Z,6.50
2018-11-02T09:04:44.090Z,6.60
2018-11-02T09:05:44.063Z,6.60
2018-11-02T09:06:44.051Z,7.10
2018-11-02T09:07:44.060Z,7.90
2018-11-02T09:08:44.028Z,6.40
2018-11-02T09:09:44.037Z,8.10
2018-11-02T09:10:44.005Z,7.20
2018-11-02T09:11:43.992Z,6.30
2018-11-02T09:12:43.993Z,6.90
2018-11-02T09:13:44.055Z,6.30
2018-11-02T09:14:44.000Z,8.20
2018-11-02T09:15:43.984Z,8.40
2018-11-02T09:16:43.939Z,6.90
2018-11-02T09:17:43.931Z,6.90
2018-11-02T09:18:43.915Z,6.60
2018-11-02T09:19:43.924Z,6.90
2018-11-02T09:20:43.900Z,6.00
2018-11-02T09:21:43.923Z,6.10
2018-11-02T09:22:43.890Z,5.80
2018-11-02T09:23:43.859Z,6.50
2018-11-02T09:24:43.857Z,6.70
2018-11-02T09:25:43.841Z,6.20
2018-11-02T09:26:43.829Z,7.30
2018-11-02T09:27:43.881Z,6.00
2018-11-02T09:28:43.804Z,6.10
2018-11-02T09:29:43.821Z,6.00
2018-11-02T09:30:43.807Z,6.00
2018-11-02T09:31:43.792Z,6.10
2018-11-02T09:32:43.763Z,6.80
2018-11-02T09:33:43.750Z,6.00
2018-11-02T09:34:43.752Z,6.10
2018-11-02T09:35:43.750Z,5.50
2018-11-02T09:36:43.723Z,5.70
2018-11-02T09:37:43.707Z,5.20
2018-11-02T09:38:43.703Z,5.20
2018-11-02T09:39:43.694Z,5.70
2018-11-02T09:40:43.672Z,5.90
2018-11-02T09:41:43.667Z,5.40
2018-11-02T09:42:43.803Z,5.70
2018-11-02T09:43:43.640Z,5.30
2018-11-02T09:44:43.635Z,5.30
2018-11-02T09:45:43.615Z,6.40
2018-11-02T09:46:43.606Z,4.70
2018-11-02T09:47:43.617Z,4.90
2018-11-02T09:48:43.581Z,4.30
2018-11-02T09:49:43.586Z,4.70
2018-11-02T09:50:43.582Z,5.00
2018-11-02T09:51:43.767Z,5.90
2018-11-02T09:52:43.565Z,5.40
2018-11-02T09:53:43.523Z,4.50
2018-11-02T09:54:43.545Z,4.80
2018-11-02T09:55:43.511Z,5.80
2018-11-02T09:56:43.490Z,4.30
2018-11-02T09:57:43.553Z,4.50
2018-11-02T09:58:43.488Z,4.90
2018-11-02T09:59:43.523Z,4.90
2018-11-02T10:00:43.444Z,4.70
2018-11-02T10:01:43.443Z,5.70
2018-11-02T10:02:43.424Z,4.90
2018-11-02T10:03:43.412Z,6.10
2018-11-02T10:04:43.429Z,7.00
2018-11-02T10:05:43.415Z,5.50
2018-11-02T10:06:43.379Z,5.60
2018-11-02T10:07:43.367Z,4.70
2018-11-02T10:08:43.382Z,4.90
2018-11-02T10:09:43.394Z,4.60
2018-11-02T10:10:43.340Z,4.30
2018-11-02T10:11:43.325Z,5.30
2018-11-02T10:12:43.318Z,5.40
2018-11-02T10:13:43.300Z,4.70
2018-11-02T10:14:43.322Z,4.20
2018-11-02T10:15:43.309Z,4.00
2018-11-02T10:16:43.276Z,4.70
2018-11-02T10:17:43.257Z,4.40
2018-11-02T10:18:43.246Z,6.60
2018-11-02T10:19:43.233Z,4.70
2018-11-02T10:20:43.251Z,4.30
2018-11-02T10:21:43.213Z,4.70
2018-11-02T10:22:43.201Z,5.20
2018-11-02T10:23:43.244Z,4.70
2018-11-02T10:24:43.178Z,4.10
2018-11-02T10:25:43.183Z,4.50
2018-11-02T10:26:43.154Z,5.30
2018-11-02T10:27:43.146Z,5.00
2018-11-02T10:28:43.138Z,5.40
2018-11-02T10:29:43.121Z,4.70
2018-11-02T10:30:43.132Z,4.70
2018-11-02T10:31:43.103Z,4.70
2018-11-02T10:32:43.092Z,4.30
2018-11-02T10:33:43.080Z,4.90
2018-11-02T10:34:43.106Z,4.70
2018-11-02T10:35:43.292Z,4.60
2018-11-02T10:36:43.054Z,4.80
2018-11-02T10:37:43.036Z,5.60
2018-11-02T10:38:43.031Z,4.20
2018-11-02T10:39:43.125Z,3.90
2018-11-02T10:40:43.010Z,4.10
2018-11-02T10:41:42.993Z,4.20
2018-11-02T10:42:43.002Z,5.10
2018-11-02T10:43:42.976Z,6.40
2018-11-02T10:44:43.006Z,5.80
2018-11-02T10:45:42.978Z,5.20
2018-11-02T10:46:42.940Z,5.10
2018-11-02T10:47:42.956Z,5.00
2018-11-02T10:48:42.911Z,4.70
2018-11-02T10:49:42.920Z,4.10
2018-11-02T10:50:42.908Z,4.00
2018-11-02T10:51:42.908Z,4.40
2018-11-02T10:52:42.868Z,4.30
2018-11-02T10:53:42.869Z,4.60
2018-11-02T10:54:43.005Z,5.30
2018-11-02T10:55:42.841Z,4.10
2018-11-02T10:56:42.869Z,4.70
2018-11-02T10:57:42.876Z,5.90
2018-11-02T10:58:42.799Z,4.90
2018-11-02T10:59:42.787Z,4.60
2018-11-02T11:00:42.843Z,4.40
2018-11-02T11:01:42.770Z,5.10
2018-11-02T11:02:42.753Z,4.70
2018-11-02T11:03:42.741Z,5.30
2018-11-02T11:04:42.753Z,3.90
2018-11-02T11:05:42.732Z,4.00
2018-11-02T11:06:42.714Z,5.30
2018-11-02T11:07:42.722Z,6.10
2018-11-02T11:08:42.684Z,4.50
2018-11-02T11:09:42.672Z,5.00
2018-11-02T11:10:42.679Z,5.50
2018-11-02T11:11:42.775Z,5.60
2018-11-02T11:12:42.820Z,6.40
2018-11-02T11:13:43.113Z,6.30
2018-11-02T11:14:42.639Z,7.70
2018-11-02T11:15:42.620Z,5.00
2018-11-02T11:16:42.599Z,6.50
2018-11-02T11:17:42.584Z,5.10
2018-11-02T11:18:42.575Z,4.20
2018-11-02T11:19:42.563Z,5.90
2018-11-02T11:20:42.567Z,6.70
2018-11-02T11:21:42.544Z,4.40
2018-11-02T11:22:42.525Z,4.70
2018-11-02T11:23:42.547Z,4.80
2018-11-02T11:24:42.507Z,5.10
2018-11-02T11:25:42.505Z,4.00
2018-11-02T11:26:42.480Z,4.60
2018-11-02T11:27:42.469Z,4.60
2018-11-02T11:28:42.491Z,5.40
2018-11-02T11:29:42.445Z,7.70
2018-11-02T11:30:42.471Z,5.20
2018-11-02T11:31:42.428Z,4.00
2018-11-02T11:32:42.416Z,4.50
2018-11-02T11:33:42.414Z,5.00
2018-11-02T11:34:42.428Z,5.10
2018-11-02T11:35:42.435Z,4.90
2018-11-02T11:36:42.376Z,6.30
2018-11-02T11:37:42.354Z,5.30
2018-11-02T11:38:42.342Z,6.00
2018-11-02T11:39:42.414Z,5.10
2018-11-02T11:40:42.343Z,3.80
2018-11-02T11:41:42.324Z,3.70
2018-11-02T11:42:42.307Z,4.70
2018-11-02T11:43:42.286Z,7.30
2018-11-02T11:44:42.280Z,5.00
2018-11-02T11:45:42.263Z,6.50
2018-11-02T11:46:42.269Z,7.10
2018-11-02T11:47:42.240Z,5.20
2018-11-02T11:48:42.352Z,3.70
2018-11-02T11:49:42.217Z,4.50
2018-11-02T11:50:42.208Z,4.80
2018-11-02T11:51:42.205Z,3.60
2018-11-02T11:52:42.187Z,4.50
2018-11-02T11:53:42.172Z,4.60
2018-11-02T11:54:42.254Z,4.70
2018-11-02T11:55:42.153Z,5.40
2018-11-02T11:56:42.149Z,5.00
2018-11-02T11:57:42.125Z,3.80
2018-11-02T11:58:42.118Z,4.40
2018-11-02T11:59:42.105Z,7.30
2018-11-02T12:00:42.094Z,5.30
2018-11-02T12:01:42.093Z,5.20
2018-11-02T12:02:42.072Z,5.00
2018-11-02T12:03:42.068Z,5.50
2018-11-02T12:04:42.109Z,4.60
2018-11-02T12:05:42.034Z,4.10
2018-11-02T12:06:42.045Z,5.10
2018-11-02T12:07:42.013Z,4.60
2018-11-02T12:08:42.004Z,4.00
2018-11-02T12:09:42.009Z,4.30
2018-11-02T12:10:41.991Z,4.90
2018-11-02T12:11:41.970Z,4.70
2018-11-02T12:12:42.004Z,4.30
2018-11-02T12:13:41.947Z,3.90
2018-11-02T12:14:41.936Z,3.80
2018-11-02T12:15:41.957Z,5.50
2018-11-02T12:16:41.913Z,4.90
2018-11-02T12:17:41.920Z,4.30
2018-11-02T12:18:41.892Z,4.60
2018-11-02T12:19:41.884Z,4.80
2018-11-02T12:20:41.870Z,6.80
2018-11-02T12:21:41.900Z,3.90
2018-11-02T12:22:41.865Z,4.30
2018-11-02T12:23:41.834Z,3.80
2018-11-02T12:24:41.823Z,4.60
2018-11-02T12:25:41.813Z,3.60
2018-11-02T12:26:41.807Z,4.00
2018-11-02T12:27:41.853Z,4.40
2018-11-02T12:28:41.819Z,4.30
2018-11-02T12:29:41.768Z,6.50
2018-11-02T12:30:41.826Z,4.90
2018-11-02T12:31:41.774Z,3.30
2018-11-02T12:32:41.753Z,4.30
2018-11-02T12:33:41.730Z,4.30
2018-11-02T12:34:41.712Z,5.30
2018-11-02T12:35:41.706Z,4.20
2018-11-02T12:36:41.693Z,4.90
2018-11-02T12:37:41.688Z,3.50
2018-11-02T12:38:41.668Z,3.80
2018-11-02T12:39:41.685Z,6.60
2018-11-02T12:40:41.647Z,4.20
2018-11-02T12:41:41.637Z,5.00
2018-11-02T12:42:41.636Z,4.10
2018-11-02T12:43:41.722Z,4.60
2018-11-02T12:44:41.605Z,3.80
2018-11-02T12:45:41.589Z,3.20
2018-11-02T12:46:41.582Z,5.30
2018-11-02T12:47:41.621Z,4.40
2018-11-02T12:48:41.736Z,6.20
2018-11-02T12:49:42.127Z,3.90
2018-11-02T12:50:41.539Z,3.60
2018-11-02T12:51:41.525Z,3.30
2018-11-02T12:52:41.531Z,4.70
2018-11-02T12:53:41.503Z,3.50
2018-11-02T12:54:41.510Z,4.40
2018-11-02T12:55:41.483Z,3.50
2018-11-02T12:56:41.477Z,4.70
2018-11-02T12:57:41.551Z,4.90
2018-11-02T12:58:41.449Z,85.60
2018-11-02T12:59:41.437Z,63.20
2018-11-02T13:00:41.424Z,12.50
2018-11-02T13:01:41.411Z,7.20
2018-11-02T13:02:41.412Z,3.80
2018-11-02T13:03:41.394Z,4.70
2018-11-02T13:04:41.381Z,4.00
2018-11-02T13:05:41.409Z,4.30
2018-11-02T13:10:07.527Z,2.70